Time;durP1;ratioP1;P1;durP2;ratioP2;P2;SDS_P1;SDS_P2;PMS_P1;PMS_P2;Temp;Humidity;BMP_temperature;BMP_pressure;BME280_temperature;BME280_humidity;BME280_pressure;Samples;Min_cycle;Max_cycle;Signal;HPM_P1;HPM_P2
2021/03/18 00:01:48;;;;;;;16.27;3.03;;;20.50;99.90;;;;;;5070075;28;20676;-69
2021/03/18 00:04:19;;;;;;;19.37;2.53;;;20.40;99.90;;;;;;5071236;28;20186;-70
2021/03/18 00:06:47;;;;;;;17.07;2.50;;;20.30;99.90;;;;;;5071220;28;20187;-69
2021/03/18 00:09:17;;;;;;;27.43;3.43;;;20.20;99.90;;;;;;5071019;28;20212;-68
2021/03/18 00:11:47;;;;;;;10.10;2.30;;;20.10;99.90;;;;;;5067556;28;20215;-69
2021/03/18 00:14:18;;;;;;;14.00;3.00;;;20.10;99.90;;;;;;5070072;28;20677;-67
2021/03/18 00:16:45;;;;;;;15.53;2.67;;;20.00;99.90;;;;;;5070870;28;20191;-69
2021/03/18 00:19:13;;;;;;;19.10;3.27;;;20.00;99.90;;;;;;5067507;28;20256;-68
2021/03/18 00:21:41;;;;;;;14.93;2.83;;;20.00;99.90;;;;;;5071042;28;20292;-69
2021/03/18 00:24:10;;;;;;;23.73;3.27;;;20.00;99.90;;;;;;5070309;28;20183;-67
2021/03/18 00:26:37;;;;;;;21.17;2.83;;;19.90;99.90;;;;;;5070907;28;20190;-70
2021/03/18 00:29:06;;;;;;;15.27;3.00;;;19.80;99.90;;;;;;5071573;28;20195;-69
2021/03/18 00:31:35;;;;;;;19.40;2.83;;;19.70;99.90;;;;;;5070827;28;21665;-70
2021/03/18 00:34:04;;;;;;;23.80;3.70;;;19.60;99.90;;;;;;5071575;28;20663;-68
2021/03/18 00:36:32;;;;;;;20.83;3.27;;;19.60;99.90;;;;;;5069954;28;20182;-69
2021/03/18 00:39:01;;;;;;;23.53;3.20;;;19.60;99.90;;;;;;5057793;28;20211;-68
2021/03/18 00:41:29;;;;;;;22.87;3.33;;;19.60;99.90;;;;;;5061698;28;20191;-68
2021/03/18 00:43:56;;;;;;;22.30;3.33;;;19.60;99.90;;;;;;5071674;28;20179;-69
2021/03/18 00:46:23;;;;;;;14.17;3.17;;;19.60;99.90;;;;;;5068539;28;20595;-70
2021/03/18 00:48:51;;;;;;;19.23;3.40;;;19.60;99.90;;;;;;5070373;28;20183;-71
2021/03/18 00:51:18;;;;;;;28.93;4.30;;;19.70;99.90;;;;;;5072279;28;20249;-69
2021/03/18 00:53:48;;;;;;;16.60;2.50;;;19.70;99.90;;;;;;5072362;28;20174;-71
2021/03/18 00:56:18;;;;;;;22.27;3.20;;;19.70;99.90;;;;;;5072200;28;20163;-66
2021/03/18 00:58:47;;;;;;;22.27;2.97;;;19.80;99.90;;;;;;5061084;28;20171;-68
2021/03/18 01:01:19;;;;;;;20.53;3.33;;;19.80;99.90;;;;;;5072229;28;20171;-66
2021/03/18 01:03:46;;;;;;;17.17;4.20;;;19.90;99.90;;;;;;5071604;28;20179;-70
2021/03/18 01:06:22;;;;;;;20.10;3.83;;;19.90;99.90;;;;;;5072148;28;20198;-67
2021/03/18 01:08:50;;;;;;;20.83;3.37;;;19.90;99.90;;;;;;5071340;28;20263;-67
2021/03/18 01:11:27;;;;;;;17.00;3.23;;;20.00;99.90;;;;;;5071936;28;20214;-66
2021/03/18 01:14:01;;;;;;;27.70;4.00;;;20.20;99.90;;;;;;5071755;28;20264;-67
2021/03/18 01:16:40;;;;;;;22.87;3.47;;;20.20;99.90;;;;;;5069914;28;20178;-67
2021/03/18 01:19:09;;;;;;;42.30;4.43;;;20.30;99.90;;;;;;5066953;28;20271;-72
2021/03/18 01:21:40;;;;;;;21.00;2.70;;;20.30;99.90;;;;;;5062392;28;20187;-69
2021/03/18 01:24:08;;;;;;;21.67;2.43;;;20.10;99.90;;;;;;5069107;28;20290;-71
2021/03/18 01:26:36;;;;;;;18.87;3.77;;;20.10;99.90;;;;;;5058523;28;20219;-70
2021/03/18 01:29:04;;;;;;;12.83;2.13;;;20.10;99.90;;;;;;5052760;28;20210;-69
2021/03/18 01:31:33;;;;;;;16.77;3.13;;;20.20;99.90;;;;;;5070945;28;20207;-69
2021/03/18 01:34:00;;;;;;;17.40;4.13;;;20.20;99.90;;;;;;5051788;28;20184;-70
2021/03/18 01:36:28;;;;;;;20.03;2.93;;;20.30;99.90;;;;;;5065904;28;20183;-69
2021/03/18 01:38:56;;;;;;;22.73;4.07;;;20.40;99.90;;;;;;5069804;28;20674;-70
2021/03/18 01:41:26;;;;;;;18.77;3.67;;;20.40;99.90;;;;;;5069311;28;20182;-68
2021/03/18 01:43:53;;;;;;;20.43;3.33;;;20.40;99.90;;;;;;5069841;28;20182;-69
2021/03/18 01:46:21;;;;;;;17.70;3.20;;;20.30;99.90;;;;;;5064148;28;20187;-70
2021/03/18 01:48:48;;;;;;;19.47;3.90;;;20.30;99.90;;;;;;5049401;28;20542;-70
2021/03/18 01:51:20;;;;;;;24.70;3.87;;;20.30;99.90;;;;;;5069503;28;20225;-70
2021/03/18 01:53:49;;;;;;;17.23;2.70;;;20.20;99.90;;;;;;5071720;28;20183;-70
2021/03/18 01:56:16;;;;;;;17.00;2.00;;;20.10;99.90;;;;;;5065375;28;20236;-67
2021/03/18 01:58:46;;;;;;;12.93;2.30;;;20.00;99.90;;;;;;5069745;28;20183;-68
2021/03/18 02:01:15;;;;;;;20.40;3.27;;;19.90;99.90;;;;;;5074156;28;20175;-70
2021/03/18 02:03:43;;;;;;;16.60;2.40;;;19.90;99.90;;;;;;5074295;28;20193;-69
2021/03/18 02:06:10;;;;;;;20.63;2.77;;;19.90;99.90;;;;;;5074771;28;20171;-71
2021/03/18 02:08:38;;;;;;;17.57;3.03;;;19.90;99.90;;;;;;5074751;28;20183;-68
2021/03/18 02:11:06;;;;;;;13.43;2.73;;;19.90;99.90;;;;;;5074305;28;20206;-70
2021/03/18 02:13:33;;;;;;;14.10;2.60;;;19.90;99.90;;;;;;5075089;28;20664;-71
2021/03/18 02:16:09;;;;;;;17.40;2.37;;;19.90;99.90;;;;;;5074844;28;20217;-69
2021/03/18 02:19:15;;;;;;;20.77;6.93;;;19.90;99.90;;;;;;5074477;28;20553;-70
2021/03/18 02:22:02;;;;;;;11.33;3.23;;;19.70;99.90;;;;;;5060594;28;20229;-70
2021/03/18 02:24:38;;;;;;;5.93;1.27;;;19.50;99.90;;;;;;5073127;28;20203;-68
2021/03/18 02:27:34;;;;;;;7.87;2.00;;;19.40;99.90;;;;;;5074247;28;20211;-70
2021/03/18 02:30:19;;;;;;;6.67;1.77;;;19.30;99.90;;;;;;5074779;28;20199;-69
2021/03/18 02:32:56;;;;;;;7.07;1.40;;;19.40;99.90;;;;;;5074187;28;20626;-72
2021/03/18 02:35:39;;;;;;;12.47;1.90;;;19.40;99.90;;;;;;5058948;28;20225;-71
2021/03/18 02:38:09;;;;;;;7.93;1.67;;;19.50;99.90;;;;;;5070445;28;20183;-71
2021/03/18 02:41:05;;;;;;;15.50;1.83;;;19.50;99.90;;;;;;5072462;28;20225;-71
2021/03/18 02:44:03;;;;;;;18.10;2.43;;;19.50;99.90;;;;;;5072508;28;20183;-70
2021/03/18 02:46:32;;;;;;;23.87;2.50;;;19.60;99.90;;;;;;5069869;28;20210;-66
2021/03/18 02:49:03;;;;;;;13.77;2.50;;;19.60;99.90;;;;;;5073769;28;20178;-66
2021/03/18 02:51:33;;;;;;;16.03;2.30;;;19.60;99.90;;;;;;5073462;28;20238;-66
2021/03/18 02:54:06;;;;;;;30.03;8.90;;;19.70;99.90;;;;;;5073728;28;20182;-66
2021/03/18 02:56:37;;;;;;;21.17;3.17;;;19.70;99.90;;;;;;5073801;28;20570;-66
2021/03/18 02:59:06;;;;;;;10.97;2.33;;;19.70;99.90;;;;;;5073838;28;20187;-66
2021/03/18 03:01:34;;;;;;;26.03;3.43;;;19.70;99.90;;;;;;5074055;28;20182;-67
2021/03/18 03:04:02;;;;;;;11.63;1.90;;;19.70;99.90;;;;;;5072208;28;20196;-68
2021/03/18 03:06:31;;;;;;;15.40;2.03;;;19.70;99.90;;;;;;5074356;28;20532;-68
2021/03/18 03:09:04;;;;;;;10.73;1.53;;;19.60;99.90;;;;;;5072484;28;20183;-66
2021/03/18 03:11:32;;;;;;;9.63;1.40;;;19.60;99.90;;;;;;5073524;28;20296;-67
2021/03/18 03:14:02;;;;;;;12.07;4.80;;;19.60;99.90;;;;;;5073727;28;20179;-70
2021/03/18 03:16:30;;;;;;;19.00;5.77;;;19.60;99.90;;;;;;5059260;28;20180;-67
2021/03/18 03:18:58;;;;;;;15.37;2.60;;;19.60;99.90;;;;;;5071941;28;20213;-68
2021/03/18 03:21:26;;;;;;;14.93;2.20;;;19.70;99.90;;;;;;5072742;28;20203;-66
2021/03/18 03:23:54;;;;;;;10.30;2.27;;;19.70;99.90;;;;;;5072482;28;20199;-68
2021/03/18 03:26:26;;;;;;;13.67;2.27;;;19.70;99.90;;;;;;5066133;28;20187;-67
2021/03/18 03:28:54;;;;;;;11.43;2.43;;;19.80;99.90;;;;;;5066645;28;20224;-69
2021/03/18 03:31:22;;;;;;;13.93;2.40;;;19.80;99.90;;;;;;5073292;28;20253;-68
2021/03/18 03:33:50;;;;;;;10.73;2.30;;;19.80;99.90;;;;;;5068174;28;20665;-68
2021/03/18 03:36:18;;;;;;;12.20;2.17;;;19.90;99.90;;;;;;5062799;28;20692;-67
2021/03/18 03:38:46;;;;;;;8.63;1.83;;;19.90;99.90;;;;;;5073214;28;20168;-66
2021/03/18 03:41:14;;;;;;;14.30;1.97;;;19.90;99.90;;;;;;5071439;28;20582;-66
2021/03/18 03:43:41;;;;;;;8.40;2.10;;;20.00;99.90;;;;;;5073017;28;20183;-66
2021/03/18 03:46:08;;;;;;;12.30;2.20;;;20.00;99.90;;;;;;5073155;28;20179;-66
2021/03/18 03:48:36;;;;;;;12.43;2.17;;;20.00;99.90;;;;;;5072960;28;20676;-68
2021/03/18 03:51:04;;;;;;;13.57;2.20;;;20.00;99.90;;;;;;5071037;28;20246;-65
2021/03/18 03:53:55;;;;;;;13.27;2.73;;;20.00;99.90;;;;;;5071853;28;20269;-67
2021/03/18 03:56:41;;;;;;;21.93;2.70;;;19.90;99.90;;;;;;5071681;28;20179;-68
2021/03/18 03:59:17;;;;;;;28.97;4.10;;;19.90;99.90;;;;;;5071672;28;20179;-67
2021/03/18 04:01:50;;;;;;;11.10;2.30;;;19.90;99.90;;;;;;5069365;28;20175;-66
2021/03/18 04:04:31;;;;;;;11.67;1.97;;;19.90;99.90;;;;;;5065484;28;20496;-69
2021/03/18 04:07:08;;;;;;;14.37;2.30;;;19.90;99.90;;;;;;5067843;28;20179;-65
2021/03/18 04:09:37;;;;;;;11.07;2.33;;;19.90;99.90;;;;;;5064857;28;20274;-64
2021/03/18 04:12:07;;;;;;;8.47;2.37;;;19.90;99.90;;;;;;5071521;28;20310;-66
2021/03/18 04:14:38;;;;;;;14.43;2.40;;;20.00;99.90;;;;;;5071580;28;20740;-68
2021/03/18 04:17:12;;;;;;;21.77;3.73;;;20.00;99.90;;;;;;5071082;28;20190;-69
2021/03/18 04:19:40;;;;;;;10.37;2.27;;;20.10;99.90;;;;;;5069410;28;20176;-65
2021/03/18 04:22:10;;;;;;;19.17;3.20;;;20.00;99.90;;;;;;5060093;28;20593;-64
2021/03/18 04:24:39;;;;;;;15.43;2.40;;;20.10;99.90;;;;;;5071509;28;20493;-64
2021/03/18 04:27:07;;;;;;;11.97;2.83;;;20.10;99.90;;;;;;5070515;28;20184;-71
2021/03/18 04:29:37;;;;;;;15.50;2.90;;;20.10;99.90;;;;;;5070247;28;20191;-71
2021/03/18 04:32:06;;;;;;;17.80;3.40;;;20.10;99.90;;;;;;5070315;28;20227;-68
2021/03/18 04:34:34;;;;;;;20.10;2.43;;;20.00;99.90;;;;;;5067192;28;20232;-70
2021/03/18 04:37:05;;;;;;;20.67;2.27;;;19.70;99.90;;;;;;5066583;28;20281;-68
2021/03/18 04:39:34;;;;;;;14.13;2.00;;;19.50;99.90;;;;;;5066552;28;20668;-70
2021/03/18 04:42:03;;;;;;;12.83;2.00;;;19.40;99.90;;;;;;5065334;28;20190;-64
2021/03/18 04:44:31;;;;;;;15.33;2.23;;;19.40;99.90;;;;;;5070842;28;20214;-69
2021/03/18 04:47:00;;;;;;;17.97;2.10;;;19.40;99.90;;;;;;5068275;28;20183;-66
2021/03/18 04:49:28;;;;;;;10.00;1.63;;;19.40;99.90;;;;;;5064062;28;20187;-69
2021/03/18 04:51:56;;;;;;;15.13;2.00;;;19.40;99.90;;;;;;5071016;28;20264;-70
2021/03/18 04:54:24;;;;;;;16.30;2.23;;;19.40;99.90;;;;;;5068003;28;20183;-72
2021/03/18 04:56:52;;;;;;;9.77;1.70;;;19.50;99.90;;;;;;5067240;28;20600;-68
2021/03/18 04:59:20;;;;;;;17.17;2.07;;;19.40;99.90;;;;;;5069667;28;20190;-69
2021/03/18 05:01:49;;;;;;;18.97;2.57;;;19.50;99.90;;;;;;5070312;28;20277;-71
2021/03/18 05:04:19;;;;;;;16.97;2.43;;;19.50;99.90;;;;;;5069485;28;20184;-65
2021/03/18 05:06:54;;;;;;;9.40;2.13;;;19.40;99.90;;;;;;5067649;28;20692;-68
2021/03/18 05:09:23;;;;;;;18.57;2.53;;;19.30;99.90;;;;;;5068546;28;20179;-70
2021/03/18 05:11:55;;;;;;;13.27;2.60;;;19.30;99.90;;;;;;5065568;28;20227;-71
2021/03/18 05:14:26;;;;;;;7.37;1.67;;;19.30;99.90;;;;;;5070354;28;20182;-70
2021/03/18 05:16:55;;;;;;;7.27;1.47;;;19.20;99.90;;;;;;5073570;28;20178;-66
2021/03/18 05:19:23;;;;;;;6.80;1.03;;;19.10;99.90;;;;;;5067892;28;20175;-67
2021/03/18 05:21:51;;;;;;;6.57;1.40;;;19.00;99.90;;;;;;5066936;28;20549;-66
2021/03/18 05:24:19;;;;;;;8.13;1.67;;;18.90;99.90;;;;;;5062374;28;21495;-68
2021/03/18 05:26:47;;;;;;;6.23;1.40;;;18.90;99.90;;;;;;5066353;28;20183;-64
2021/03/18 05:29:16;;;;;;;3.10;0.87;;;18.80;99.90;;;;;;5070146;28;20325;-66
2021/03/18 05:31:44;;;;;;;3.27;0.87;;;18.70;99.90;;;;;;5070381;28;21616;-69
2021/03/18 05:34:13;;;;;;;4.73;0.60;;;18.70;99.90;;;;;;5072579;28;20210;-65
2021/03/18 05:36:41;;;;;;;3.67;0.80;;;18.60;99.90;;;;;;5070905;28;20223;-68
2021/03/18 05:39:09;;;;;;;6.30;1.60;;;18.70;99.90;;;;;;5069007;28;20812;-69
2021/03/18 05:41:36;;;;;;;5.87;1.30;;;18.60;99.90;;;;;;5071888;28;20529;-70
2021/03/18 05:44:07;;;;;;;4.90;1.43;;;18.60;99.90;;;;;;5067986;28;20541;-71
2021/03/18 05:46:36;;;;;;;8.23;2.17;;;18.60;99.90;;;;;;5066886;28;20196;-70
2021/03/18 05:49:04;;;;;;;3.63;1.30;;;18.60;99.90;;;;;;5069511;28;20271;-71
2021/03/18 05:51:33;;;;;;;3.17;1.30;;;18.50;99.90;;;;;;5072121;28;20249;-70
2021/03/18 05:54:03;;;;;;;12.03;4.23;;;18.30;99.90;;;;;;5067596;28;20638;-66
2021/03/18 05:56:33;;;;;;;6.83;2.77;;;18.20;99.90;;;;;;5058514;28;20234;-70
2021/03/18 05:59:01;;;;;;;12.10;5.73;;;18.10;99.90;;;;;;5070183;28;20233;-66
2021/03/18 06:01:28;;;;;;;3.17;1.83;;;18.00;99.90;;;;;;5073131;28;20198;-69
2021/03/18 06:03:58;;;;;;;4.13;1.13;;;18.00;99.90;;;;;;5068909;28;20557;-68
2021/03/18 06:06:26;;;;;;;4.27;1.37;;;18.00;99.90;;;;;;5053477;28;20269;-69
2021/03/18 06:08:54;;;;;;;3.83;1.30;;;17.90;99.90;;;;;;5060385;28;20183;-70
2021/03/18 06:11:24;;;;;;;5.60;1.40;;;18.00;99.90;;;;;;5065084;28;20242;-70
2021/03/18 06:13:52;;;;;;;8.00;1.60;;;18.10;99.90;;;;;;5072741;28;20647;-71
2021/03/18 06:16:19;;;;;;;4.30;1.70;;;18.10;99.90;;;;;;5065781;28;20187;-70
2021/03/18 06:18:47;;;;;;;6.47;1.67;;;18.10;99.90;;;;;;5072908;28;20175;-71
2021/03/18 06:21:15;;;;;;;6.43;2.47;;;18.10;99.90;;;;;;5071395;28;20701;-70
2021/03/18 06:23:58;;;;;;;9.53;1.90;;;18.10;99.90;;;;;;5067379;28;20233;-69
2021/03/18 06:26:38;;;;;;;6.73;2.00;;;18.10;99.90;;;;;;5076266;28;20236;-70
2021/03/18 06:29:26;;;;;;;3.43;1.20;;;18.00;99.90;;;;;;5076433;28;20253;-71
2021/03/18 06:31:53;;;;;;;3.67;1.60;;;17.90;99.90;;;;;;5064563;28;20219;-70
2021/03/18 06:34:42;;;;;;;3.50;1.70;;;18.00;99.90;;;;;;5054516;28;20176;-69
2021/03/18 06:37:38;;;;;;;6.67;1.53;;;17.90;99.90;;;;;;5056174;28;20192;-70
2021/03/18 06:40:20;;;;;;;4.50;1.63;;;18.00;99.90;;;;;;5072568;28;20551;-70
2021/03/18 06:42:59;;;;;;;6.80;1.50;;;18.00;99.90;;;;;;5065020;28;20544;-70
2021/03/18 06:45:40;;;;;;;9.30;2.17;;;17.90;99.90;;;;;;5066234;28;20174;-69
2021/03/18 06:48:16;;;;;;;12.47;2.80;;;18.00;99.90;;;;;;5074583;28;20178;-70
2021/03/18 06:50:48;;;;;;;3.77;1.37;;;18.10;99.90;;;;;;5064868;28;20536;-71
2021/03/18 06:53:30;;;;;;;11.03;2.30;;;18.10;99.90;;;;;;5065261;28;20668;-71
2021/03/18 06:55:58;;;;;;;3.97;1.77;;;18.00;99.90;;;;;;5071679;28;20207;-70
2021/03/18 06:58:27;;;;;;;5.47;1.70;;;18.10;99.90;;;;;;5073825;28;20183;-70
2021/03/18 07:00:56;;;;;;;4.07;1.63;;;18.00;99.90;;;;;;5072831;28;20208;-69
2021/03/18 07:03:44;;;;;;;4.90;1.60;;;18.00;99.90;;;;;;5071874;28;20167;-70
2021/03/18 07:06:33;;;;;;;6.97;2.50;;;18.00;99.90;;;;;;5064941;28;20195;-71
2021/03/18 07:09:13;;;;;;;7.23;2.30;;;17.90;99.90;;;;;;5073004;28;20550;-70
2021/03/18 07:11:43;;;;;;;6.37;1.53;;;18.00;99.90;;;;;;5067368;28;20218;-71
2021/03/18 07:14:11;;;;;;;8.63;2.20;;;17.90;99.90;;;;;;5072846;28;20175;-72
2021/03/18 07:16:47;;;;;;;3.67;1.87;;;17.90;99.90;;;;;;5073815;28;20190;-71
2021/03/18 07:19:23;;;;;;;4.63;1.80;;;17.80;99.90;;;;;;5072009;28;20698;-70
2021/03/18 07:21:52;;;;;;;5.17;2.00;;;17.90;99.90;;;;;;5061055;28;20187;-69
2021/03/18 07:24:30;;;;;;;4.30;1.50;;;17.90;99.90;;;;;;5067606;28;20175;-70
2021/03/18 07:27:07;;;;;;;4.87;1.73;;;17.90;99.90;;;;;;5060590;28;20251;-71
2021/03/18 07:29:35;;;;;;;3.87;1.40;;;17.90;99.90;;;;;;5063535;28;20261;-69
2021/03/18 07:35:27;;;;;;;4.40;2.27;;;17.90;99.90;;;;;;5060525;28;20241;-69
2021/03/18 07:37:57;;;;;;;3.60;1.90;;;17.90;99.90;;;;;;5072258;28;20754;-69
2021/03/18 07:40:27;;;;;;;3.37;1.77;;;17.90;99.90;;;;;;5073317;28;20215;-70
2021/03/18 07:42:56;;;;;;;3.87;1.87;;;17.90;99.90;;;;;;5066821;28;20183;-69
2021/03/18 07:45:26;;;;;;;4.73;1.83;;;17.90;99.90;;;;;;5072443;28;20206;-69
2021/03/18 07:47:54;;;;;;;5.33;1.90;;;17.90;99.90;;;;;;5062318;28;20177;-69
2021/03/18 07:50:32;;;;;;;6.37;2.30;;;17.90;99.90;;;;;;5073252;28;20229;-70
2021/03/18 07:53:01;;;;;;;2.40;1.27;;;17.90;99.90;;;;;;5071488;28;20618;-70
2021/03/18 07:55:31;;;;;;;2.87;1.70;;;17.80;99.90;;;;;;5070393;28;20175;-69
2021/03/18 07:57:59;;;;;;;2.10;1.30;;;17.80;99.90;;;;;;5072368;28;20265;-67
2021/03/18 08:00:31;;;;;;;3.97;1.73;;;17.80;99.90;;;;;;5072501;28;20182;-68
2021/03/18 08:03:30;;;;;;;3.20;1.63;;;17.80;99.90;;;;;;5070378;28;20218;-68
2021/03/18 08:05:59;;;;;;;4.47;1.80;;;17.80;99.90;;;;;;5032078;28;20597;-69
2021/03/18 08:08:33;;;;;;;4.00;1.47;;;17.80;99.90;;;;;;5072566;28;20197;-70
2021/03/18 08:11:12;;;;;;;2.13;1.10;;;17.80;99.90;;;;;;5072912;28;20211;-71
2021/03/18 08:13:44;;;;;;;2.20;1.43;;;17.70;99.90;;;;;;5060332;28;20254;-68
2021/03/18 08:16:26;;;;;;;5.03;1.43;;;17.70;99.90;;;;;;5070235;28;20190;-70
2021/03/18 08:18:54;;;;;;;5.00;1.90;;;17.70;99.90;;;;;;5071874;28;20190;-69
2021/03/18 08:21:36;;;;;;;7.30;1.90;;;17.70;99.90;;;;;;5072178;28;20183;-69
2021/03/18 08:24:05;;;;;;;5.03;2.07;;;17.70;99.90;;;;;;5072883;28;20178;-68
2021/03/18 08:26:44;;;;;;;7.90;1.60;;;17.70;99.90;;;;;;5072019;28;20399;-69
2021/03/18 08:29:26;;;;;;;4.47;1.40;;;17.70;99.90;;;;;;5072566;28;20630;-71
2021/03/18 08:32:09;;;;;;;5.40;1.87;;;17.60;99.90;;;;;;5072608;28;20599;-71
2021/03/18 08:34:47;;;;;;;8.97;1.20;;;17.60;99.90;;;;;;5071272;28;20175;-70
2021/03/18 08:37:41;;;;;;;2.40;0.80;;;17.60;99.90;;;;;;5070116;28;20293;-71
2021/03/18 08:40:20;;;;;;;5.30;1.80;;;17.60;99.90;;;;;;5072442;28;20205;-68
2021/03/18 08:42:49;;;;;;;2.27;1.17;;;17.50;99.90;;;;;;5057705;28;20180;-69
2021/03/18 08:45:19;;;;;;;6.73;1.73;;;17.60;99.90;;;;;;5072465;28;20189;-69
2021/03/18 08:47:52;;;;;;;7.47;1.57;;;17.70;99.90;;;;;;5071656;28;20688;-69
2021/03/18 08:50:25;;;;;;;4.70;1.03;;;17.60;99.90;;;;;;5071081;28;20204;-70
2021/03/18 08:52:54;;;;;;;6.03;1.40;;;17.60;99.90;;;;;;5056237;28;20231;-68
2021/03/18 08:55:38;;;;;;;5.03;1.40;;;17.70;99.90;;;;;;5070495;28;20180;-70
2021/03/18 08:58:06;;;;;;;7.87;1.67;;;17.70;99.90;;;;;;5068953;28;20240;-70
2021/03/18 09:00:35;;;;;;;4.10;1.20;;;17.70;99.90;;;;;;5068793;28;20187;-68
2021/03/18 09:03:04;;;;;;;3.47;1.30;;;17.70;99.90;;;;;;5072285;28;20214;-69
2021/03/18 09:05:32;;;;;;;3.60;0.90;;;17.60;99.90;;;;;;5071211;28;20644;-70
2021/03/18 09:08:06;;;;;;;2.87;1.13;;;17.70;99.90;;;;;;5071070;28;20239;-70
2021/03/18 09:10:36;;;;;;;2.87;1.50;;;17.70;99.90;;;;;;5072335;28;20175;-69
2021/03/18 09:13:18;;;;;;;2.83;1.20;;;17.80;99.90;;;;;;5070696;28;20574;-69
2021/03/18 09:15:48;;;;;;;4.20;1.20;;;17.80;99.90;;;;;;5062730;28;20175;-70
2021/03/18 09:18:18;;;;;;;6.17;1.10;;;17.80;99.90;;;;;;5072123;28;20260;-69
2021/03/18 09:20:58;;;;;;;2.70;1.20;;;17.80;99.90;;;;;;5058484;28;20175;-70
2021/03/18 09:23:29;;;;;;;1.40;1.10;;;17.80;99.90;;;;;;5071769;28;20182;-70
2021/03/18 09:26:02;;;;;;;4.83;1.20;;;17.80;99.90;;;;;;5069480;28;20597;-69
2021/03/18 09:28:40;;;;;;;3.10;1.30;;;17.70;99.90;;;;;;5071600;28;20219;-71
2021/03/18 09:31:08;;;;;;;7.83;1.90;;;17.80;99.90;;;;;;5071748;28;20199;-69
2021/03/18 09:33:41;;;;;;;3.03;1.50;;;17.80;99.90;;;;;;5071742;28;20630;-68
2021/03/18 09:36:16;;;;;;;6.33;1.67;;;17.70;99.90;;;;;;5065378;28;20646;-69
2021/03/18 09:38:53;;;;;;;6.23;1.90;;;17.70;99.90;;;;;;5071604;28;20539;-70
2021/03/18 09:41:27;;;;;;;10.33;2.20;;;17.80;99.90;;;;;;5066197;28;20630;-70
2021/03/18 09:44:23;;;;;;;12.67;3.27;;;18.00;99.90;;;;;;5063175;28;20202;-68
2021/03/18 09:47:02;;;;;;;16.70;3.40;;;18.10;99.90;;;;;;5058913;28;20248;-69
2021/03/18 09:49:32;;;;;;;28.70;4.07;;;18.30;99.90;;;;;;5071666;28;20190;-69
2021/03/18 09:52:03;;;;;;;38.73;9.57;;;18.50;99.90;;;;;;5071303;28;20195;-68
2021/03/18 09:54:31;;;;;;;49.47;7.93;;;18.80;99.90;;;;;;5067158;28;20258;-69
2021/03/18 09:57:04;;;;;;;38.30;5.30;;;19.00;99.90;;;;;;5071104;28;20661;-68
2021/03/18 09:59:32;;;;;;;48.77;6.07;;;19.10;99.90;;;;;;5066525;28;20180;-70
2021/03/18 10:01:59;;;;;;;40.93;6.00;;;19.20;99.90;;;;;;5070999;28;20205;-68
2021/03/18 10:04:27;;;;;;;42.13;5.70;;;19.30;99.90;;;;;;5071286;28;20182;-67
2021/03/18 10:06:57;;;;;;;46.43;5.17;;;19.30;99.90;;;;;;5071022;28;20267;-69
2021/03/18 10:09:32;;;;;;;45.90;6.30;;;19.40;99.90;;;;;;5071435;28;20258;-71
2021/03/18 10:12:10;;;;;;;45.93;6.20;;;19.50;99.90;;;;;;5071265;28;20219;-70
2021/03/18 10:14:53;;;;;;;39.37;4.87;;;19.70;99.90;;;;;;5070265;28;20182;-68
2021/03/18 10:17:30;;;;;;;36.33;5.30;;;19.80;99.90;;;;;;5072925;28;20185;-68
2021/03/18 10:20:20;;;;;;;24.83;5.37;;;20.00;99.90;;;;;;5074477;28;20182;-70
2021/03/18 10:22:59;;;;;;;40.53;4.93;;;20.00;99.90;;;;;;5073913;28;20179;-68
2021/03/18 10:25:28;;;;;;;28.20;4.10;;;20.20;99.90;;;;;;5074608;28;20213;-70
2021/03/18 10:28:10;;;;;;;25.90;4.40;;;20.10;99.90;;;;;;5074281;28;20223;-66
2021/03/18 10:30:46;;;;;;;30.57;4.50;;;19.90;99.90;;;;;;5074969;28;20171;-67
2021/03/18 10:33:17;;;;;;;32.43;5.53;;;20.00;99.90;;;;;;5075019;28;20179;-69
2021/03/18 10:35:53;;;;;;;27.93;4.67;;;20.00;99.90;;;;;;5075017;28;20175;-68
2021/03/18 10:38:37;;;;;;;27.53;4.23;;;20.10;99.90;;;;;;5074338;28;20171;-70
2021/03/18 10:41:06;;;;;;;22.33;4.10;;;20.20;99.90;;;;;;5074748;28;20265;-70
2021/03/18 10:43:51;;;;;;;29.23;4.10;;;20.30;99.90;;;;;;5074880;28;20277;-70
2021/03/18 10:46:29;;;;;;;28.10;4.33;;;20.30;99.90;;;;;;5074948;28;20211;-69
2021/03/18 10:48:58;;;;;;;24.73;3.87;;;20.30;99.90;;;;;;5073777;28;20193;-70
2021/03/18 10:51:25;;;;;;;22.43;3.60;;;20.30;99.90;;;;;;5073356;28;20219;-67
2021/03/18 10:53:53;;;;;;;33.83;5.47;;;20.40;99.90;;;;;;5074696;28;20261;-67
2021/03/18 10:56:30;;;;;;;34.70;4.83;;;20.40;99.90;;;;;;5074775;28;20253;-70
2021/03/18 10:58:57;;;;;;;32.27;4.97;;;20.40;99.90;;;;;;5074456;28;20195;-71
2021/03/18 11:01:30;;;;;;;31.47;5.43;;;20.50;99.90;;;;;;5070928;28;20669;-69
2021/03/18 11:04:05;;;;;;;21.30;4.67;;;20.50;99.90;;;;;;5059461;28;20183;-71
2021/03/18 11:06:32;;;;;;;27.83;4.60;;;20.50;99.90;;;;;;5065035;28;20637;-68
2021/03/18 11:09:01;;;;;;;23.73;3.43;;;20.60;99.90;;;;;;5072758;28;20167;-70
2021/03/18 11:11:33;;;;;;;24.53;4.17;;;20.60;99.90;;;;;;5074417;28;20700;-67
2021/03/18 11:14:12;;;;;;;22.27;4.17;;;20.70;99.90;;;;;;5066609;28;20180;-70
2021/03/18 11:16:40;;;;;;;25.70;4.60;;;20.60;99.90;;;;;;5088216;28;20539;-66
2021/03/18 11:19:20;;;;;;;25.70;3.70;;;20.70;99.90;;;;;;5071619;28;20187;-71
2021/03/18 11:21:47;;;;;;;26.80;3.63;;;20.70;99.90;;;;;;5053855;28;20182;-70
2021/03/18 11:24:20;;;;;;;31.10;4.30;;;20.70;99.90;;;;;;5063741;28;20171;-68
2021/03/18 11:26:53;;;;;;;27.27;4.57;;;20.80;99.90;;;;;;5054144;28;20176;-71
2021/03/18 11:29:24;;;;;;;33.90;4.67;;;20.60;99.90;;;;;;5052160;28;20187;-69
2021/03/18 11:31:55;;;;;;;22.63;3.47;;;20.50;99.90;;;;;;5074076;28;20668;-73
2021/03/18 11:34:35;;;;;;;23.50;4.20;;;20.20;99.90;;;;;;5073939;28;20186;-68
2021/03/18 11:37:09;;;;;;;35.10;4.77;;;20.10;99.90;;;;;;5072824;28;20171;-70
2021/03/18 11:39:36;;;;;;;31.57;4.50;;;20.10;99.90;;;;;;5073674;28;20542;-69
2021/03/18 11:42:04;;;;;;;32.43;5.90;;;20.00;99.90;;;;;;5073789;28;20649;-73
2021/03/18 11:44:33;;;;;;;30.30;6.03;;;20.00;99.90;;;;;;5073928;28;20164;-70
2021/03/18 11:47:05;;;;;;;24.23;4.13;;;20.00;99.90;;;;;;5072781;28;20551;-70
2021/03/18 11:49:33;;;;;;;40.40;4.87;;;20.00;99.90;;;;;;5072369;28;20201;-73
2021/03/18 11:52:01;;;;;;;34.33;4.37;;;20.10;99.90;;;;;;5072708;28;20241;-68
2021/03/18 11:54:28;;;;;;;37.77;4.50;;;20.10;99.90;;;;;;5073581;28;20178;-70
2021/03/18 11:56:59;;;;;;;35.33;4.57;;;20.10;99.90;;;;;;5060118;28;20179;-70
2021/03/18 11:59:26;;;;;;;29.07;4.53;;;20.30;99.90;;;;;;5073554;28;20178;-69
2021/03/18 12:01:54;;;;;;;31.03;4.87;;;20.40;99.90;;;;;;5073263;28;20198;-68
2021/03/18 12:04:22;;;;;;;33.70;4.67;;;20.40;99.90;;;;;;5072700;28;20186;-68
2021/03/18 12:06:49;;;;;;;30.33;4.53;;;20.50;99.90;;;;;;5072903;28;20183;-67
2021/03/18 12:09:17;;;;;;;28.97;4.10;;;20.50;99.90;;;;;;5071644;28;20222;-70
2021/03/18 12:11:44;;;;;;;28.30;4.30;;;20.50;99.90;;;;;;5072979;28;20202;-67
2021/03/18 12:14:12;;;;;;;27.27;4.10;;;20.50;99.90;;;;;;5071144;28;20328;-69
2021/03/18 12:16:39;;;;;;;22.40;3.93;;;20.60;99.90;;;;;;5072704;28;20171;-67
2021/03/18 12:19:06;;;;;;;21.70;3.33;;;20.60;99.90;;;;;;5071596;28;20273;-68
2021/03/18 12:21:35;;;;;;;22.73;4.03;;;20.70;99.90;;;;;;5072911;28;20182;-67
2021/03/18 12:24:02;;;;;;;18.93;4.17;;;20.80;99.90;;;;;;5071532;28;20195;-67
2021/03/18 12:26:30;;;;;;;17.23;2.90;;;20.80;99.90;;;;;;5072639;28;20198;-67
2021/03/18 12:28:57;;;;;;;20.73;4.23;;;20.90;99.90;;;;;;5064194;28;20755;-67
2021/03/18 12:31:25;;;;;;;18.37;2.77;;;20.90;99.90;;;;;;5061813;28;20621;-69
2021/03/18 12:33:52;;;;;;;21.23;3.07;;;20.90;99.90;;;;;;5072353;28;20244;-71
2021/03/18 12:36:19;;;;;;;21.43;3.33;;;20.90;99.90;;;;;;5070834;28;20179;-67
2021/03/18 12:38:47;;;;;;;15.27;2.80;;;20.90;99.90;;;;;;5072285;28;20638;-68
2021/03/18 12:41:14;;;;;;;20.97;3.23;;;20.90;99.90;;;;;;5072453;28;20266;-66
2021/03/18 12:43:42;;;;;;;16.33;3.57;;;20.90;99.90;;;;;;5072055;28;20179;-70
2021/03/18 12:46:09;;;;;;;23.67;3.23;;;20.90;99.90;;;;;;5071104;28;20194;-68
2021/03/18 12:48:37;;;;;;;24.73;3.90;;;20.90;99.90;;;;;;5072118;28;20511;-69
2021/03/18 12:51:04;;;;;;;29.57;3.80;;;21.00;99.90;;;;;;5070157;28;20297;-69
2021/03/18 12:53:31;;;;;;;20.70;3.47;;;21.10;99.90;;;;;;5072048;28;20181;-69
2021/03/18 12:55:59;;;;;;;22.57;3.67;;;21.10;99.90;;;;;;5072344;28;20184;-68
2021/03/18 12:58:27;;;;;;;22.70;3.75;;;21.10;99.90;;;;;;5070981;28;20486;-70
2021/03/18 13:00:54;;;;;;;25.50;3.83;;;21.00;99.90;;;;;;5063883;28;20639;-69
2021/03/18 13:03:21;;;;;;;26.17;3.97;;;21.10;99.90;;;;;;5066651;28;20508;-70
2021/03/18 13:05:49;;;;;;;26.47;4.03;;;21.10;99.90;;;;;;5071906;28;20172;-69
2021/03/18 13:08:16;;;;;;;24.03;3.47;;;21.10;99.90;;;;;;5072224;28;20220;-69